Terminal Aerodrome Forecast
Issued by NWS Sioux Falls, SD

Home | Current Version | Previous Version | Text Only | Print | Product List | Glossary On
Versions: 1 2 3 4 5 6 7 8 9 10 11 12 13 14 15 16 17 18 19 20
000
FTUS43 KFSD 061743
TAFFSD
TAF
KFSD 061743Z 0618/0718 16017G25KT P6SM -SHRA SCT015 BKN035
     FM062000 15013G18KT P6SM SCT025 OVC035
     FM070300 15013KT 4SM -TSRA BKN017CB OVC050
     FM070600 15015G22KT P6SM BKN015=

USA.gov is the U.S. government's official web portal to all federal, state and local government web resources and services.